sensor_id;sensor_type;location;lat;lon;timestamp;P1;durP1;ratioP1;P2;durP2;ratioP2
5696;SDS011;2873;50.966;7.210;2022-12-07T00:02:14;42.20;;;23.33;;
5696;SDS011;2873;50.966;7.210;2022-12-07T00:04:40;49.07;;;23.70;;
5696;SDS011;2873;50.966;7.210;2022-12-07T00:07:05;50.13;;;23.77;;
5696;SDS011;2873;50.966;7.210;2022-12-07T00:09:31;43.43;;;24.30;;
5696;SDS011;2873;50.966;7.210;2022-12-07T00:11:56;41.87;;;22.87;;
5696;SDS011;2873;50.966;7.210;2022-12-07T00:14:22;45.13;;;23.10;;
5696;SDS011;2873;50.966;7.210;2022-12-07T00:16:51;43.88;;;24.08;;
5696;SDS011;2873;50.966;7.210;2022-12-07T00:19:17;48.10;;;24.50;;
5696;SDS011;2873;50.966;7.210;2022-12-07T00:21:43;44.83;;;23.83;;
5696;SDS011;2873;50.966;7.210;2022-12-07T00:24:09;50.13;;;24.15;;
5696;SDS011;2873;50.966;7.210;2022-12-07T00:26:37;46.28;;;24.65;;
5696;SDS011;2873;50.966;7.210;2022-12-07T00:29:04;45.63;;;23.67;;
5696;SDS011;2873;50.966;7.210;2022-12-07T00:31:44;46.28;;;24.20;;
5696;SDS011;2873;50.966;7.210;2022-12-07T00:34:17;42.10;;;23.55;;
5696;SDS011;2873;50.966;7.210;2022-12-07T00:36:44;49.88;;;25.50;;
5696;SDS011;2873;50.966;7.210;2022-12-07T00:39:10;44.90;;;23.73;;
5696;SDS011;2873;50.966;7.210;2022-12-07T00:41:36;51.80;;;25.92;;
5696;SDS011;2873;50.966;7.210;2022-12-07T00:44:01;46.30;;;25.40;;
5696;SDS011;2873;50.966;7.210;2022-12-07T00:46:29;44.77;;;24.07;;
5696;SDS011;2873;50.966;7.210;2022-12-07T00:48:55;44.25;;;24.45;;
5696;SDS011;2873;50.966;7.210;2022-12-07T00:51:22;44.60;;;23.20;;
5696;SDS011;2873;50.966;7.210;2022-12-07T00:53:49;51.55;;;24.80;;
5696;SDS011;2873;50.966;7.210;2022-12-07T00:56:16;46.53;;;23.83;;
5696;SDS011;2873;50.966;7.210;2022-12-07T00:58:43;50.80;;;24.40;;
5696;SDS011;2873;50.966;7.210;2022-12-07T01:01:13;47.47;;;25.13;;
5696;SDS011;2873;50.966;7.210;2022-12-07T01:03:39;50.73;;;24.37;;
5696;SDS011;2873;50.966;7.210;2022-12-07T01:06:05;49.92;;;24.27;;
5696;SDS011;2873;50.966;7.210;2022-12-07T01:08:30;45.83;;;25.05;;
5696;SDS011;2873;50.966;7.210;2022-12-07T01:10:57;45.63;;;23.87;;
5696;SDS011;2873;50.966;7.210;2022-12-07T01:13:31;50.05;;;24.73;;
5696;SDS011;2873;50.966;7.210;2022-12-07T01:15:58;46.90;;;24.47;;
5696;SDS011;2873;50.966;7.210;2022-12-07T01:18:26;47.35;;;24.70;;
5696;SDS011;2873;50.966;7.210;2022-12-07T01:21:12;47.13;;;24.15;;
5696;SDS011;2873;50.966;7.210;2022-12-07T01:23:40;42.17;;;23.20;;
5696;SDS011;2873;50.966;7.210;2022-12-07T01:26:08;50.58;;;25.02;;
5696;SDS011;2873;50.966;7.210;2022-12-07T01:28:37;47.35;;;24.17;;
5696;SDS011;2873;50.966;7.210;2022-12-07T01:31:04;49.45;;;25.80;;
5696;SDS011;2873;50.966;7.210;2022-12-07T01:33:33;47.03;;;24.03;;
5696;SDS011;2873;50.966;7.210;2022-12-07T01:36:02;50.33;;;25.55;;
5696;SDS011;2873;50.966;7.210;2022-12-07T01:38:32;47.53;;;24.48;;
5696;SDS011;2873;50.966;7.210;2022-12-07T01:40:59;47.47;;;24.23;;
5696;SDS011;2873;50.966;7.210;2022-12-07T01:43:26;47.08;;;24.88;;
5696;SDS011;2873;50.966;7.210;2022-12-07T01:45:53;48.53;;;25.52;;
5696;SDS011;2873;50.966;7.210;2022-12-07T01:48:24;45.55;;;25.60;;
5696;SDS011;2873;50.966;7.210;2022-12-07T01:51:09;48.88;;;26.25;;
5696;SDS011;2873;50.966;7.210;2022-12-07T01:53:40;55.38;;;25.70;;
5696;SDS011;2873;50.966;7.210;2022-12-07T01:56:08;49.15;;;26.20;;
5696;SDS011;2873;50.966;7.210;2022-12-07T01:58:36;50.30;;;25.95;;
5696;SDS011;2873;50.966;7.210;2022-12-07T02:01:02;49.95;;;26.02;;
5696;SDS011;2873;50.966;7.210;2022-12-07T02:03:46;49.05;;;25.88;;
5696;SDS011;2873;50.966;7.210;2022-12-07T02:06:13;57.05;;;27.63;;
5696;SDS011;2873;50.966;7.210;2022-12-07T02:08:43;48.65;;;24.77;;
5696;SDS011;2873;50.966;7.210;2022-12-07T02:11:10;54.42;;;26.00;;
5696;SDS011;2873;50.966;7.210;2022-12-07T02:13:36;54.05;;;26.65;;
5696;SDS011;2873;50.966;7.210;2022-12-07T02:18:43;41.60;;;23.50;;
5696;SDS011;2873;50.966;7.210;2022-12-07T02:21:24;44.27;;;23.33;;
5696;SDS011;2873;50.966;7.210;2022-12-07T02:24:11;44.40;;;23.43;;
5696;SDS011;2873;50.966;7.210;2022-12-07T02:26:53;48.40;;;23.02;;
5696;SDS011;2873;50.966;7.210;2022-12-07T02:29:51;42.95;;;22.65;;
5696;SDS011;2873;50.966;7.210;2022-12-07T02:32:23;41.97;;;23.17;;
5696;SDS011;2873;50.966;7.210;2022-12-07T02:34:56;49.72;;;23.02;;
5696;SDS011;2873;50.966;7.210;2022-12-07T02:37:41;46.08;;;24.23;;
5696;SDS011;2873;50.966;7.210;2022-12-07T02:40:21;46.33;;;24.47;;
5696;SDS011;2873;50.966;7.210;2022-12-07T02:45:46;51.60;;;25.95;;
5696;SDS011;2873;50.966;7.210;2022-12-07T02:48:15;49.55;;;25.73;;
5696;SDS011;2873;50.966;7.210;2022-12-07T02:50:44;54.90;;;26.77;;
5696;SDS011;2873;50.966;7.210;2022-12-07T02:55:54;68.03;;;33.40;;
5696;SDS011;2873;50.966;7.210;2022-12-07T02:58:23;61.53;;;30.03;;
5696;SDS011;2873;50.966;7.210;2022-12-07T03:04:18;62.25;;;29.90;;
5696;SDS011;2873;50.966;7.210;2022-12-07T03:07:18;66.73;;;29.93;;
5696;SDS011;2873;50.966;7.210;2022-12-07T03:12:24;79.13;;;35.40;;
5696;SDS011;2873;50.966;7.210;2022-12-07T03:15:00;64.80;;;30.40;;
5696;SDS011;2873;50.966;7.210;2022-12-07T03:17:35;66.53;;;31.88;;
5696;SDS011;2873;50.966;7.210;2022-12-07T03:20:04;61.00;;;29.40;;
5696;SDS011;2873;50.966;7.210;2022-12-07T03:22:33;68.53;;;33.25;;
5696;SDS011;2873;50.966;7.210;2022-12-07T03:25:04;65.93;;;31.52;;
5696;SDS011;2873;50.966;7.210;2022-12-07T03:27:34;67.07;;;31.95;;
5696;SDS011;2873;50.966;7.210;2022-12-07T03:30:03;70.25;;;32.58;;
5696;SDS011;2873;50.966;7.210;2022-12-07T03:32:36;80.60;;;35.17;;
5696;SDS011;2873;50.966;7.210;2022-12-07T03:35:14;77.07;;;35.28;;
5696;SDS011;2873;50.966;7.210;2022-12-07T03:37:56;70.70;;;33.90;;
5696;SDS011;2873;50.966;7.210;2022-12-07T03:43:02;75.93;;;33.88;;
5696;SDS011;2873;50.966;7.210;2022-12-07T03:45:31;77.05;;;33.97;;
5696;SDS011;2873;50.966;7.210;2022-12-07T03:48:14;80.35;;;33.53;;
5696;SDS011;2873;50.966;7.210;2022-12-07T03:51:00;71.32;;;31.65;;
5696;SDS011;2873;50.966;7.210;2022-12-07T03:53:46;72.95;;;33.70;;
5696;SDS011;2873;50.966;7.210;2022-12-07T03:56:19;72.55;;;31.20;;
5696;SDS011;2873;50.966;7.210;2022-12-07T03:58:46;65.88;;;30.63;;
5696;SDS011;2873;50.966;7.210;2022-12-07T04:01:13;74.53;;;32.10;;
5696;SDS011;2873;50.966;7.210;2022-12-07T04:03:38;61.67;;;30.50;;
5696;SDS011;2873;50.966;7.210;2022-12-07T04:06:04;58.10;;;28.20;;
5696;SDS011;2873;50.966;7.210;2022-12-07T04:08:30;57.30;;;28.60;;
5696;SDS011;2873;50.966;7.210;2022-12-07T04:10:55;58.27;;;28.30;;
5696;SDS011;2873;50.966;7.210;2022-12-07T04:13:21;55.05;;;27.58;;
5696;SDS011;2873;50.966;7.210;2022-12-07T04:15:46;56.17;;;27.23;;
5696;SDS011;2873;50.966;7.210;2022-12-07T04:18:12;53.42;;;27.02;;
5696;SDS011;2873;50.966;7.210;2022-12-07T04:20:37;57.07;;;28.07;;
5696;SDS011;2873;50.966;7.210;2022-12-07T04:23:03;46.20;;;24.30;;
5696;SDS011;2873;50.966;7.210;2022-12-07T04:25:29;46.57;;;25.27;;
5696;SDS011;2873;50.966;7.210;2022-12-07T04:27:54;46.77;;;25.40;;
5696;SDS011;2873;50.966;7.210;2022-12-07T04:30:20;46.53;;;24.50;;
5696;SDS011;2873;50.966;7.210;2022-12-07T04:32:45;54.35;;;26.63;;
5696;SDS011;2873;50.966;7.210;2022-12-07T04:35:11;47.23;;;25.30;;
5696;SDS011;2873;50.966;7.210;2022-12-07T04:37:36;49.53;;;26.50;;
5696;SDS011;2873;50.966;7.210;2022-12-07T04:40:04;51.05;;;26.15;;
5696;SDS011;2873;50.966;7.210;2022-12-07T04:42:32;50.00;;;26.15;;
5696;SDS011;2873;50.966;7.210;2022-12-07T04:44:57;49.70;;;25.50;;
5696;SDS011;2873;50.966;7.210;2022-12-07T04:47:23;51.23;;;26.00;;
5696;SDS011;2873;50.966;7.210;2022-12-07T04:49:48;48.53;;;26.40;;
5696;SDS011;2873;50.966;7.210;2022-12-07T04:52:14;45.97;;;25.90;;
5696;SDS011;2873;50.966;7.210;2022-12-07T04:54:39;40.20;;;23.90;;
5696;SDS011;2873;50.966;7.210;2022-12-07T04:57:05;48.10;;;26.23;;
5696;SDS011;2873;50.966;7.210;2022-12-07T04:59:30;45.90;;;25.58;;
5696;SDS011;2873;50.966;7.210;2022-12-07T05:01:56;42.60;;;24.93;;
5696;SDS011;2873;50.966;7.210;2022-12-07T05:04:22;37.90;;;21.85;;
5696;SDS011;2873;50.966;7.210;2022-12-07T05:06:47;38.07;;;22.00;;
5696;SDS011;2873;50.966;7.210;2022-12-07T05:09:13;40.45;;;22.73;;
5696;SDS011;2873;50.966;7.210;2022-12-07T05:11:38;40.50;;;22.70;;
5696;SDS011;2873;50.966;7.210;2022-12-07T05:14:06;41.53;;;22.50;;
5696;SDS011;2873;50.966;7.210;2022-12-07T05:16:43;48.47;;;25.52;;
5696;SDS011;2873;50.966;7.210;2022-12-07T05:19:10;48.95;;;25.58;;
5696;SDS011;2873;50.966;7.210;2022-12-07T05:21:36;50.37;;;25.43;;
5696;SDS011;2873;50.966;7.210;2022-12-07T05:24:01;49.00;;;27.33;;
5696;SDS011;2873;50.966;7.210;2022-12-07T05:26:27;51.17;;;27.35;;
5696;SDS011;2873;50.966;7.210;2022-12-07T05:28:54;46.50;;;26.50;;
5696;SDS011;2873;50.966;7.210;2022-12-07T05:31:20;46.72;;;26.60;;
5696;SDS011;2873;50.966;7.210;2022-12-07T05:33:47;48.92;;;25.35;;
5696;SDS011;2873;50.966;7.210;2022-12-07T05:36:13;49.30;;;24.97;;
5696;SDS011;2873;50.966;7.210;2022-12-07T05:38:39;52.33;;;24.80;;
5696;SDS011;2873;50.966;7.210;2022-12-07T05:41:05;46.63;;;24.50;;
5696;SDS011;2873;50.966;7.210;2022-12-07T05:43:31;46.15;;;24.08;;
5696;SDS011;2873;50.966;7.210;2022-12-07T05:45:57;41.53;;;24.02;;
5696;SDS011;2873;50.966;7.210;2022-12-07T05:48:23;39.00;;;22.73;;
5696;SDS011;2873;50.966;7.210;2022-12-07T05:50:49;35.92;;;20.70;;
5696;SDS011;2873;50.966;7.210;2022-12-07T05:53:15;34.78;;;20.27;;
5696;SDS011;2873;50.966;7.210;2022-12-07T05:55:41;30.50;;;18.00;;
5696;SDS011;2873;50.966;7.210;2022-12-07T05:58:07;27.97;;;17.30;;
5696;SDS011;2873;50.966;7.210;2022-12-07T06:00:51;27.58;;;16.73;;
5696;SDS011;2873;50.966;7.210;2022-12-07T06:03:18;25.42;;;15.88;;
5696;SDS011;2873;50.966;7.210;2022-12-07T06:05:44;26.93;;;16.13;;
5696;SDS011;2873;50.966;7.210;2022-12-07T06:08:09;31.35;;;19.05;;
5696;SDS011;2873;50.966;7.210;2022-12-07T06:10:35;36.10;;;21.13;;
5696;SDS011;2873;50.966;7.210;2022-12-07T06:13:00;38.85;;;20.58;;
5696;SDS011;2873;50.966;7.210;2022-12-07T06:15:26;38.20;;;21.10;;
5696;SDS011;2873;50.966;7.210;2022-12-07T06:17:51;40.00;;;22.38;;
5696;SDS011;2873;50.966;7.210;2022-12-07T06:20:17;37.17;;;21.53;;
5696;SDS011;2873;50.966;7.210;2022-12-07T06:22:42;37.95;;;21.85;;
5696;SDS011;2873;50.966;7.210;2022-12-07T06:25:08;38.00;;;21.57;;
5696;SDS011;2873;50.966;7.210;2022-12-07T06:27:34;38.23;;;20.37;;
5696;SDS011;2873;50.966;7.210;2022-12-07T06:30:00;41.07;;;20.90;;
5696;SDS011;2873;50.966;7.210;2022-12-07T06:32:31;39.83;;;21.58;;
5696;SDS011;2873;50.966;7.210;2022-12-07T06:34:57;39.10;;;21.42;;
5696;SDS011;2873;50.966;7.210;2022-12-07T06:37:23;38.10;;;21.58;;
5696;SDS011;2873;50.966;7.210;2022-12-07T06:39:48;42.47;;;21.67;;
5696;SDS011;2873;50.966;7.210;2022-12-07T06:42:14;36.40;;;19.77;;
5696;SDS011;2873;50.966;7.210;2022-12-07T06:44:39;34.57;;;20.87;;
5696;SDS011;2873;50.966;7.210;2022-12-07T06:47:05;34.93;;;18.90;;
5696;SDS011;2873;50.966;7.210;2022-12-07T06:49:32;33.53;;;20.10;;
5696;SDS011;2873;50.966;7.210;2022-12-07T06:51:58;36.60;;;19.92;;
5696;SDS011;2873;50.966;7.210;2022-12-07T06:54:24;34.72;;;20.00;;
5696;SDS011;2873;50.966;7.210;2022-12-07T06:56:49;36.73;;;20.07;;
5696;SDS011;2873;50.966;7.210;2022-12-07T06:59:15;33.75;;;20.13;;
5696;SDS011;2873;50.966;7.210;2022-12-07T07:01:41;33.70;;;18.70;;
5696;SDS011;2873;50.966;7.210;2022-12-07T07:04:06;31.88;;;19.58;;
5696;SDS011;2873;50.966;7.210;2022-12-07T07:06:32;29.70;;;18.80;;
5696;SDS011;2873;50.966;7.210;2022-12-07T07:08:58;35.00;;;18.30;;
5696;SDS011;2873;50.966;7.210;2022-12-07T07:11:23;28.67;;;18.02;;
5696;SDS011;2873;50.966;7.210;2022-12-07T07:13:49;32.97;;;19.20;;
5696;SDS011;2873;50.966;7.210;2022-12-07T07:16:14;32.58;;;18.80;;
5696;SDS011;2873;50.966;7.210;2022-12-07T07:18:40;29.70;;;18.47;;
5696;SDS011;2873;50.966;7.210;2022-12-07T07:21:05;38.03;;;19.80;;
5696;SDS011;2873;50.966;7.210;2022-12-07T07:23:31;31.80;;;19.10;;
5696;SDS011;2873;50.966;7.210;2022-12-07T07:25:56;37.20;;;20.40;;
5696;SDS011;2873;50.966;7.210;2022-12-07T07:28:22;34.47;;;20.57;;
5696;SDS011;2873;50.966;7.210;2022-12-07T07:30:48;37.55;;;21.50;;
5696;SDS011;2873;50.966;7.210;2022-12-07T07:33:13;32.20;;;18.35;;
5696;SDS011;2873;50.966;7.210;2022-12-07T07:35:40;35.40;;;19.70;;
5696;SDS011;2873;50.966;7.210;2022-12-07T07:38:05;34.03;;;20.47;;
5696;SDS011;2873;50.966;7.210;2022-12-07T07:40:32;37.08;;;20.33;;
5696;SDS011;2873;50.966;7.210;2022-12-07T07:42:57;40.87;;;21.50;;
5696;SDS011;2873;50.966;7.210;2022-12-07T07:45:23;36.67;;;20.90;;
5696;SDS011;2873;50.966;7.210;2022-12-07T07:47:50;34.25;;;21.08;;
5696;SDS011;2873;50.966;7.210;2022-12-07T07:50:16;34.65;;;20.73;;
5696;SDS011;2873;50.966;7.210;2022-12-07T07:52:42;34.13;;;21.27;;
5696;SDS011;2873;50.966;7.210;2022-12-07T07:55:08;41.50;;;20.92;;
5696;SDS011;2873;50.966;7.210;2022-12-07T07:57:35;39.08;;;21.60;;
5696;SDS011;2873;50.966;7.210;2022-12-07T08:00:03;38.28;;;21.90;;
5696;SDS011;2873;50.966;7.210;2022-12-07T08:02:30;42.70;;;22.80;;
5696;SDS011;2873;50.966;7.210;2022-12-07T08:04:55;38.47;;;22.60;;
5696;SDS011;2873;50.966;7.210;2022-12-07T08:07:21;44.10;;;22.90;;
5696;SDS011;2873;50.966;7.210;2022-12-07T08:09:46;37.63;;;22.93;;
5696;SDS011;2873;50.966;7.210;2022-12-07T08:12:12;41.42;;;23.65;;
5696;SDS011;2873;50.966;7.210;2022-12-07T08:14:37;41.30;;;23.93;;
5696;SDS011;2873;50.966;7.210;2022-12-07T08:17:03;39.30;;;22.75;;
5696;SDS011;2873;50.966;7.210;2022-12-07T08:19:28;40.97;;;23.70;;
5696;SDS011;2873;50.966;7.210;2022-12-07T08:21:54;42.35;;;22.92;;
5696;SDS011;2873;50.966;7.210;2022-12-07T08:24:21;38.47;;;21.30;;
5696;SDS011;2873;50.966;7.210;2022-12-07T08:26:46;44.28;;;22.55;;
5696;SDS011;2873;50.966;7.210;2022-12-07T08:29:13;44.22;;;23.48;;
5696;SDS011;2873;50.966;7.210;2022-12-07T08:31:38;40.00;;;22.53;;
5696;SDS011;2873;50.966;7.210;2022-12-07T08:34:04;47.42;;;23.65;;
5696;SDS011;2873;50.966;7.210;2022-12-07T08:36:30;44.17;;;23.80;;
5696;SDS011;2873;50.966;7.210;2022-12-07T08:38:55;41.15;;;23.63;;
5696;SDS011;2873;50.966;7.210;2022-12-07T08:41:21;44.70;;;24.20;;
5696;SDS011;2873;50.966;7.210;2022-12-07T08:43:47;41.67;;;23.63;;
5696;SDS011;2873;50.966;7.210;2022-12-07T08:46:31;43.58;;;22.85;;
5696;SDS011;2873;50.966;7.210;2022-12-07T08:49:03;42.85;;;24.20;;
5696;SDS011;2873;50.966;7.210;2022-12-07T08:51:32;40.75;;;22.70;;
5696;SDS011;2873;50.966;7.210;2022-12-07T08:53:58;40.97;;;22.50;;
5696;SDS011;2873;50.966;7.210;2022-12-07T08:56:28;47.53;;;26.27;;
5696;SDS011;2873;50.966;7.210;2022-12-07T08:58:53;42.40;;;23.42;;
5696;SDS011;2873;50.966;7.210;2022-12-07T09:01:19;40.30;;;23.80;;
5696;SDS011;2873;50.966;7.210;2022-12-07T09:03:45;43.97;;;23.92;;
5696;SDS011;2873;50.966;7.210;2022-12-07T09:06:10;44.03;;;24.20;;
5696;SDS011;2873;50.966;7.210;2022-12-07T09:08:37;39.40;;;23.17;;
5696;SDS011;2873;50.966;7.210;2022-12-07T09:11:06;43.88;;;23.75;;
5696;SDS011;2873;50.966;7.210;2022-12-07T09:13:32;41.67;;;23.17;;
5696;SDS011;2873;50.966;7.210;2022-12-07T09:15:57;45.37;;;22.80;;
5696;SDS011;2873;50.966;7.210;2022-12-07T09:18:23;41.67;;;23.60;;
5696;SDS011;2873;50.966;7.210;2022-12-07T09:20:49;43.55;;;24.58;;
5696;SDS011;2873;50.966;7.210;2022-12-07T09:23:15;47.55;;;23.80;;
5696;SDS011;2873;50.966;7.210;2022-12-07T09:25:41;46.30;;;23.92;;
5696;SDS011;2873;50.966;7.210;2022-12-07T09:28:06;43.83;;;23.73;;
5696;SDS011;2873;50.966;7.210;2022-12-07T09:30:32;43.97;;;24.27;;
5696;SDS011;2873;50.966;7.210;2022-12-07T09:32:58;39.53;;;23.63;;
5696;SDS011;2873;50.966;7.210;2022-12-07T09:35:24;38.40;;;23.67;;
5696;SDS011;2873;50.966;7.210;2022-12-07T09:37:50;45.25;;;23.65;;
5696;SDS011;2873;50.966;7.210;2022-12-07T09:40:16;42.97;;;23.55;;
5696;SDS011;2873;50.966;7.210;2022-12-07T09:42:45;45.90;;;24.93;;
5696;SDS011;2873;50.966;7.210;2022-12-07T09:45:15;44.75;;;23.70;;
5696;SDS011;2873;50.966;7.210;2022-12-07T09:47:44;40.63;;;24.30;;
5696;SDS011;2873;50.966;7.210;2022-12-07T09:50:12;46.27;;;24.60;;
5696;SDS011;2873;50.966;7.210;2022-12-07T09:52:44;38.90;;;24.58;;
5696;SDS011;2873;50.966;7.210;2022-12-07T09:55:13;37.95;;;22.88;;
5696;SDS011;2873;50.966;7.210;2022-12-07T09:57:41;39.77;;;22.47;;
5696;SDS011;2873;50.966;7.210;2022-12-07T10:00:15;39.38;;;22.65;;
5696;SDS011;2873;50.966;7.210;2022-12-07T10:02:43;40.78;;;24.10;;
5696;SDS011;2873;50.966;7.210;2022-12-07T10:05:19;39.75;;;23.02;;
5696;SDS011;2873;50.966;7.210;2022-12-07T10:07:49;42.58;;;23.00;;
5696;SDS011;2873;50.966;7.210;2022-12-07T10:10:16;39.93;;;22.10;;
5696;SDS011;2873;50.966;7.210;2022-12-07T10:12:52;40.42;;;21.38;;
5696;SDS011;2873;50.966;7.210;2022-12-07T10:15:23;37.00;;;21.00;;
5696;SDS011;2873;50.966;7.210;2022-12-07T10:18:14;37.50;;;20.60;;
5696;SDS011;2873;50.966;7.210;2022-12-07T10:21:09;37.22;;;20.65;;
5696;SDS011;2873;50.966;7.210;2022-12-07T10:23:39;37.67;;;21.75;;
5696;SDS011;2873;50.966;7.210;2022-12-07T10:31:41;35.22;;;20.13;;
5696;SDS011;2873;50.966;7.210;2022-12-07T10:34:20;38.33;;;21.00;;
5696;SDS011;2873;50.966;7.210;2022-12-07T10:36:50;34.33;;;20.60;;
5696;SDS011;2873;50.966;7.210;2022-12-07T10:39:18;32.15;;;20.83;;
5696;SDS011;2873;50.966;7.210;2022-12-07T10:42:04;27.13;;;17.77;;
5696;SDS011;2873;50.966;7.210;2022-12-07T10:44:31;30.08;;;17.42;;
5696;SDS011;2873;50.966;7.210;2022-12-07T10:52:50;28.27;;;16.05;;
5696;SDS011;2873;50.966;7.210;2022-12-07T11:00:50;25.50;;;16.40;;
5696;SDS011;2873;50.966;7.210;2022-12-07T11:14:19;25.17;;;13.77;;
5696;SDS011;2873;50.966;7.210;2022-12-07T11:16:52;27.58;;;14.77;;
5696;SDS011;2873;50.966;7.210;2022-12-07T11:37:33;20.63;;;11.70;;
5696;SDS011;2873;50.966;7.210;2022-12-07T11:40:04;24.33;;;12.02;;
5696;SDS011;2873;50.966;7.210;2022-12-07T11:46:08;19.63;;;11.20;;
5696;SDS011;2873;50.966;7.210;2022-12-07T11:48:41;16.83;;;10.60;;
5696;SDS011;2873;50.966;7.210;2022-12-07T11:51:29;17.83;;;10.50;;
5696;SDS011;2873;50.966;7.210;2022-12-07T11:54:01;18.40;;;10.40;;
5696;SDS011;2873;50.966;7.210;2022-12-07T11:56:36;16.63;;;10.33;;
5696;SDS011;2873;50.966;7.210;2022-12-07T11:59:06;21.70;;;10.48;;
5696;SDS011;2873;50.966;7.210;2022-12-07T12:01:50;21.35;;;10.45;;
5696;SDS011;2873;50.966;7.210;2022-12-07T12:04:25;19.35;;;11.15;;
5696;SDS011;2873;50.966;7.210;2022-12-07T12:06:58;14.85;;;8.48;;
5696;SDS011;2873;50.966;7.210;2022-12-07T12:14:35;13.90;;;6.80;;
5696;SDS011;2873;50.966;7.210;2022-12-07T12:25:29;12.95;;;7.60;;
5696;SDS011;2873;50.966;7.210;2022-12-07T12:28:02;14.18;;;7.50;;
5696;SDS011;2873;50.966;7.210;2022-12-07T12:30:36;13.48;;;7.60;;
5696;SDS011;2873;50.966;7.210;2022-12-07T12:33:13;15.48;;;7.63;;
5696;SDS011;2873;50.966;7.210;2022-12-07T12:46:55;13.10;;;8.10;;
5696;SDS011;2873;50.966;7.210;2022-12-07T12:51:58;14.48;;;8.50;;
5696;SDS011;2873;50.966;7.210;2022-12-07T12:54:29;14.80;;;9.10;;
5696;SDS011;2873;50.966;7.210;2022-12-07T13:10:22;16.38;;;8.98;;
5696;SDS011;2873;50.966;7.210;2022-12-07T13:13:29;18.13;;;8.13;;
5696;SDS011;2873;50.966;7.210;2022-12-07T13:15:51;15.60;;;8.85;;
5696;SDS011;2873;50.966;7.210;2022-12-07T13:23:37;18.30;;;8.97;;
5696;SDS011;2873;50.966;7.210;2022-12-07T13:31:39;17.45;;;8.32;;
5696;SDS011;2873;50.966;7.210;2022-12-07T13:34:30;16.25;;;8.27;;
5696;SDS011;2873;50.966;7.210;2022-12-07T13:36:56;16.63;;;8.70;;
5696;SDS011;2873;50.966;7.210;2022-12-07T13:39:24;18.40;;;8.50;;
5696;SDS011;2873;50.966;7.210;2022-12-07T13:41:51;18.20;;;8.20;;
5696;SDS011;2873;50.966;7.210;2022-12-07T13:44:17;14.88;;;8.77;;
5696;SDS011;2873;50.966;7.210;2022-12-07T13:46:55;14.77;;;7.93;;
5696;SDS011;2873;50.966;7.210;2022-12-07T13:49:48;15.67;;;8.13;;
5696;SDS011;2873;50.966;7.210;2022-12-07T13:54:43;17.77;;;8.50;;
5696;SDS011;2873;50.966;7.210;2022-12-07T13:57:26;15.55;;;8.18;;
5696;SDS011;2873;50.966;7.210;2022-12-07T13:59:54;17.75;;;8.40;;
5696;SDS011;2873;50.966;7.210;2022-12-07T14:02:20;14.90;;;8.03;;
5696;SDS011;2873;50.966;7.210;2022-12-07T14:04:50;21.30;;;7.95;;
5696;SDS011;2873;50.966;7.210;2022-12-07T14:07:24;16.50;;;7.72;;
5696;SDS011;2873;50.966;7.210;2022-12-07T14:12:25;15.32;;;7.90;;
5696;SDS011;2873;50.966;7.210;2022-12-07T14:14:53;12.20;;;7.60;;
5696;SDS011;2873;50.966;7.210;2022-12-07T14:17:20;14.93;;;8.30;;
5696;SDS011;2873;50.966;7.210;2022-12-07T14:22:25;14.27;;;7.95;;
5696;SDS011;2873;50.966;7.210;2022-12-07T14:25:11;18.70;;;8.85;;
5696;SDS011;2873;50.966;7.210;2022-12-07T14:28:02;13.10;;;7.40;;
5696;SDS011;2873;50.966;7.210;2022-12-07T14:30:29;13.77;;;8.33;;
5696;SDS011;2873;50.966;7.210;2022-12-07T14:32:58;17.00;;;8.32;;
5696;SDS011;2873;50.966;7.210;2022-12-07T14:35:26;19.73;;;8.32;;
5696;SDS011;2873;50.966;7.210;2022-12-07T14:37:51;13.23;;;8.03;;
5696;SDS011;2873;50.966;7.210;2022-12-07T14:40:19;18.60;;;9.60;;
5696;SDS011;2873;50.966;7.210;2022-12-07T14:42:46;17.02;;;8.90;;
5696;SDS011;2873;50.966;7.210;2022-12-07T14:45:16;17.10;;;9.10;;
5696;SDS011;2873;50.966;7.210;2022-12-07T14:47:43;17.88;;;9.63;;
5696;SDS011;2873;50.966;7.210;2022-12-07T14:50:14;20.35;;;9.10;;
5696;SDS011;2873;50.966;7.210;2022-12-07T14:52:43;23.33;;;10.30;;
5696;SDS011;2873;50.966;7.210;2022-12-07T14:55:14;21.03;;;9.93;;
5696;SDS011;2873;50.966;7.210;2022-12-07T14:57:51;18.23;;;9.60;;
5696;SDS011;2873;50.966;7.210;2022-12-07T15:00:17;22.25;;;10.50;;
5696;SDS011;2873;50.966;7.210;2022-12-07T15:02:44;18.08;;;10.07;;
5696;SDS011;2873;50.966;7.210;2022-12-07T15:05:11;17.42;;;9.88;;
5696;SDS011;2873;50.966;7.210;2022-12-07T15:07:36;20.27;;;10.45;;
5696;SDS011;2873;50.966;7.210;2022-12-07T15:10:02;22.40;;;9.90;;
5696;SDS011;2873;50.966;7.210;2022-12-07T15:12:28;21.63;;;10.98;;
5696;SDS011;2873;50.966;7.210;2022-12-07T15:14:54;24.63;;;11.03;;
5696;SDS011;2873;50.966;7.210;2022-12-07T15:17:19;19.77;;;10.37;;
5696;SDS011;2873;50.966;7.210;2022-12-07T15:19:45;23.97;;;12.70;;
5696;SDS011;2873;50.966;7.210;2022-12-07T15:22:10;23.53;;;14.10;;
5696;SDS011;2873;50.966;7.210;2022-12-07T15:24:36;27.93;;;13.10;;
5696;SDS011;2873;50.966;7.210;2022-12-07T15:27:02;17.13;;;10.15;;
5696;SDS011;2873;50.966;7.210;2022-12-07T15:29:28;19.60;;;10.00;;
5696;SDS011;2873;50.966;7.210;2022-12-07T15:31:54;22.30;;;10.80;;
5696;SDS011;2873;50.966;7.210;2022-12-07T15:34:21;21.08;;;9.98;;
5696;SDS011;2873;50.966;7.210;2022-12-07T15:36:47;27.40;;;11.32;;
5696;SDS011;2873;50.966;7.210;2022-12-07T15:39:13;23.00;;;12.63;;
5696;SDS011;2873;50.966;7.210;2022-12-07T15:41:39;20.30;;;11.07;;
5696;SDS011;2873;50.966;7.210;2022-12-07T15:44:04;19.15;;;11.40;;
5696;SDS011;2873;50.966;7.210;2022-12-07T15:46:48;22.85;;;13.40;;
5696;SDS011;2873;50.966;7.210;2022-12-07T15:49:15;22.30;;;11.23;;
5696;SDS011;2873;50.966;7.210;2022-12-07T15:51:42;21.75;;;11.25;;
5696;SDS011;2873;50.966;7.210;2022-12-07T15:54:19;21.85;;;12.00;;
5696;SDS011;2873;50.966;7.210;2022-12-07T15:56:52;27.40;;;13.07;;
5696;SDS011;2873;50.966;7.210;2022-12-07T15:59:19;26.92;;;16.20;;
5696;SDS011;2873;50.966;7.210;2022-12-07T16:01:44;27.42;;;14.40;;
5696;SDS011;2873;50.966;7.210;2022-12-07T16:04:11;19.77;;;11.03;;
5696;SDS011;2873;50.966;7.210;2022-12-07T16:06:37;18.80;;;11.25;;
5696;SDS011;2873;50.966;7.210;2022-12-07T16:09:03;20.20;;;12.10;;
5696;SDS011;2873;50.966;7.210;2022-12-07T16:11:28;18.77;;;11.70;;
5696;SDS011;2873;50.966;7.210;2022-12-07T16:13:54;22.05;;;11.10;;
5696;SDS011;2873;50.966;7.210;2022-12-07T16:16:20;26.70;;;15.90;;
5696;SDS011;2873;50.966;7.210;2022-12-07T16:18:47;27.70;;;15.55;;
5696;SDS011;2873;50.966;7.210;2022-12-07T16:21:13;24.33;;;13.75;;
5696;SDS011;2873;50.966;7.210;2022-12-07T16:23:39;25.35;;;13.95;;
5696;SDS011;2873;50.966;7.210;2022-12-07T16:26:06;22.73;;;12.77;;
5696;SDS011;2873;50.966;7.210;2022-12-07T16:28:40;27.13;;;13.77;;
5696;SDS011;2873;50.966;7.210;2022-12-07T16:31:11;27.80;;;16.27;;
5696;SDS011;2873;50.966;7.210;2022-12-07T16:33:38;38.53;;;19.17;;
5696;SDS011;2873;50.966;7.210;2022-12-07T16:36:06;21.27;;;11.80;;
5696;SDS011;2873;50.966;7.210;2022-12-07T16:38:32;18.70;;;10.57;;
5696;SDS011;2873;50.966;7.210;2022-12-07T16:40:58;20.15;;;9.07;;
5696;SDS011;2873;50.966;7.210;2022-12-07T16:43:24;15.00;;;8.73;;
5696;SDS011;2873;50.966;7.210;2022-12-07T16:45:50;14.15;;;8.85;;
5696;SDS011;2873;50.966;7.210;2022-12-07T16:48:15;13.50;;;8.27;;
5696;SDS011;2873;50.966;7.210;2022-12-07T16:50:41;13.40;;;8.60;;
5696;SDS011;2873;50.966;7.210;2022-12-07T16:53:08;11.65;;;8.57;;
5696;SDS011;2873;50.966;7.210;2022-12-07T16:55:35;12.50;;;8.73;;
5696;SDS011;2873;50.966;7.210;2022-12-07T16:58:02;13.40;;;8.20;;
5696;SDS011;2873;50.966;7.210;2022-12-07T17:00:27;17.70;;;9.20;;
5696;SDS011;2873;50.966;7.210;2022-12-07T17:02:53;13.23;;;7.90;;
5696;SDS011;2873;50.966;7.210;2022-12-07T17:05:20;17.27;;;8.60;;
5696;SDS011;2873;50.966;7.210;2022-12-07T17:07:45;11.10;;;8.23;;